Time;durP1;ratioP1;P1;durP2;ratioP2;P2;SDS_P1;SDS_P2;PMS_P1;PMS_P2;Temp;Humidity;BMP_temperature;BMP_pressure;BME280_temperature;BME280_humidity;BME280_pressure;Samples;Min_cycle;Max_cycle;Signal;HPM_P1;HPM_P2
2023/02/22 00:01:07;;;;;;;;;1.00;1.00;;;;;;;;117900;1191;25481;-68
2023/02/22 00:03:35;;;;;;;;;2.00;2.00;;;;;;;;117864;1177;25483;-68
2023/02/22 00:06:05;;;;;;;;;2.00;1.00;;;;;;;;117890;1191;25336;-69
2023/02/22 00:08:35;;;;;;;;;1.75;1.00;;;;;;;;117885;1181;25210;-68
2023/02/22 00:11:09;;;;;;;;;1.33;0.33;;;;;;;;117844;1191;24818;-68
2023/02/22 00:13:38;;;;;;;;;2.00;2.00;;;;;;;;117879;1191;25502;-69
2023/02/22 00:16:07;;;;;;;;;4.33;3.00;;;;;;;;117805;1192;25506;-69
2023/02/22 00:18:36;;;;;;;;;1.00;1.00;;;;;;;;117841;1180;24867;-68
2023/02/22 00:21:09;;;;;;;;;0.67;0.67;;;;;;;;117855;1191;25060;-69
2023/02/22 00:23:45;;;;;;;;;1.00;1.00;;;;;;;;117901;1179;25095;-68
2023/02/22 00:26:19;;;;;;;;;1.00;1.00;;;;;;;;117944;1179;24996;-69
2023/02/22 00:28:50;;;;;;;;;1.33;1.33;;;;;;;;117903;1177;24760;-68
2023/02/22 00:31:20;;;;;;;;;0.00;0.00;;;;;;;;117947;1191;25020;-68
2023/02/22 00:33:49;;;;;;;;;1.50;1.50;;;;;;;;117925;1180;24683;-68
2023/02/22 00:36:17;;;;;;;;;1.67;1.00;;;;;;;;117955;1191;25312;-67
2023/02/22 00:38:45;;;;;;;;;1.00;1.00;;;;;;;;117933;1181;24891;-67
2023/02/22 00:41:14;;;;;;;;;1.00;1.00;;;;;;;;117946;1178;25580;-67
2023/02/22 00:43:43;;;;;;;;;1.00;1.00;;;;;;;;117943;1181;24745;-67
2023/02/22 00:46:12;;;;;;;;;1.00;1.00;;;;;;;;117951;1181;25584;-67
2023/02/22 00:48:41;;;;;;;;;1.00;1.00;;;;;;;;117837;1188;25293;-64
2023/02/22 00:51:10;;;;;;;;;0.33;0.33;;;;;;;;117933;1179;24916;-64
2023/02/22 00:53:38;;;;;;;;;0.67;0.67;;;;;;;;117882;1191;24943;-65
2023/02/22 00:56:07;;;;;;;;;1.00;1.00;;;;;;;;117786;1179;25125;-64
2023/02/22 00:58:35;;;;;;;;;1.67;1.67;;;;;;;;117910;1191;26321;-63
2023/02/22 01:01:04;;;;;;;;;1.75;1.75;;;;;;;;117908;1177;26123;-62
2023/02/22 01:03:34;;;;;;;;;2.25;2.25;;;;;;;;117939;1183;24650;-64
2023/02/22 01:06:03;;;;;;;;;1.00;1.00;;;;;;;;119930;1190;25587;-65
2023/02/22 01:08:31;;;;;;;;;1.00;1.00;;;;;;;;119922;1191;25350;-64
2023/02/22 01:10:59;;;;;;;;;2.00;2.00;;;;;;;;119905;1191;24910;-62
2023/02/22 01:13:27;;;;;;;;;2.00;1.00;;;;;;;;119881;1182;24912;-63
2023/02/22 01:15:56;;;;;;;;;2.50;1.00;;;;;;;;119886;1191;25759;-64
2023/02/22 01:18:24;;;;;;;;;1.25;1.25;;;;;;;;119896;1191;25545;-63
2023/02/22 01:20:53;;;;;;;;;1.00;1.00;;;;;;;;120188;1182;25124;-63
2023/02/22 01:23:21;;;;;;;;;0.50;0.50;;;;;;;;119730;1179;26257;-63
2023/02/22 01:25:49;;;;;;;;;4.33;1.33;;;;;;;;119896;1191;25614;-67
2023/02/22 01:28:17;;;;;;;;;1.25;1.00;;;;;;;;119898;1182;25588;-66
2023/02/22 01:30:46;;;;;;;;;1.50;1.50;;;;;;;;119923;1190;24747;-67
2023/02/22 01:33:14;;;;;;;;;1.50;1.50;;;;;;;;119913;1191;25582;-67
2023/02/22 01:35:45;;;;;;;;;1.00;1.00;;;;;;;;119873;1191;25430;-66
2023/02/22 01:38:13;;;;;;;;;0.75;0.75;;;;;;;;119894;1191;24921;-66
2023/02/22 01:40:45;;;;;;;;;2.00;2.00;;;;;;;;119927;1187;24903;-66
2023/02/22 01:43:32;;;;;;;;;0.50;0.50;;;;;;;;119914;1191;25760;-67
2023/02/22 01:46:20;;;;;;;;;2.50;1.00;;;;;;;;119892;1191;25615;-67
2023/02/22 01:48:54;;;;;;;;;3.33;0.67;;;;;;;;119732;1183;25695;-67
2023/02/22 01:51:44;;;;;;;;;1.00;1.00;;;;;;;;119722;1192;25664;-66
2023/02/22 01:54:29;;;;;;;;;1.50;1.50;;;;;;;;119738;1185;25491;-67
2023/02/22 01:57:24;;;;;;;;;3.00;1.33;;;;;;;;119728;1191;25303;-66
2023/02/22 01:59:59;;;;;;;;;1.00;1.00;;;;;;;;119709;1183;24815;-67
2023/02/22 02:02:28;;;;;;;;;2.00;2.00;;;;;;;;119704;1191;24795;-68
2023/02/22 02:04:56;;;;;;;;;1.33;1.33;;;;;;;;119746;1191;25502;-67
2023/02/22 02:07:25;;;;;;;;;1.00;1.00;;;;;;;;119918;1182;24984;-67
2023/02/22 02:09:58;;;;;;;;;1.50;1.50;;;;;;;;119903;1183;25283;-67
2023/02/22 02:12:29;;;;;;;;;1.00;1.00;;;;;;;;119885;1191;25279;-67
2023/02/22 02:15:30;;;;;;;;;1.00;1.00;;;;;;;;119934;1183;26060;-67
2023/02/22 02:18:02;;;;;;;;;1.33;1.33;;;;;;;;119889;1183;25329;-67
2023/02/22 02:20:43;;;;;;;;;2.00;2.00;;;;;;;;119903;1191;25170;-66
2023/02/22 02:23:17;;;;;;;;;2.00;2.00;;;;;;;;119804;1192;25486;-66
2023/02/22 02:26:10;;;;;;;;;2.00;2.00;;;;;;;;119978;1179;24881;-66
2023/02/22 02:29:15;;;;;;;;;1.00;1.00;;;;;;;;119903;1187;25390;-66
2023/02/22 02:32:14;;;;;;;;;3.00;3.00;;;;;;;;119910;1191;25765;-66
2023/02/22 02:35:16;;;;;;;;;1.33;1.33;;;;;;;;119904;1182;25262;-67
2023/02/22 02:37:57;;;;;;;;;2.00;2.00;;;;;;;;119900;1182;25679;-66
2023/02/22 02:40:36;;;;;;;;;2.00;2.00;;;;;;;;119778;1180;25597;-67
2023/02/22 02:43:31;;;;;;;;;3.00;2.00;;;;;;;;119895;1191;24954;-67
2023/02/22 02:46:12;;;;;;;;;0.75;0.75;;;;;;;;119763;1182;25186;-67
2023/02/22 02:48:45;;;;;;;;;1.50;0.50;;;;;;;;119732;1191;25634;-67
2023/02/22 02:51:15;;;;;;;;;0.00;0.00;;;;;;;;119708;1192;24684;-67
2023/02/22 02:53:46;;;;;;;;;2.50;2.00;;;;;;;;120028;1179;25345;-67
2023/02/22 02:56:14;;;;;;;;;1.75;0.00;;;;;;;;119702;1192;25038;-67
2023/02/22 02:58:51;;;;;;;;;0.50;0.50;;;;;;;;119911;1191;25226;-67
2023/02/22 03:01:50;;;;;;;;;0.50;0.50;;;;;;;;119810;1182;24999;-67
2023/02/22 03:04:30;;;;;;;;;3.00;3.00;;;;;;;;119901;1182;24941;-67
2023/02/22 03:07:08;;;;;;;;;2.75;2.75;;;;;;;;119919;1182;25498;-67
2023/02/22 03:09:47;;;;;;;;;2.00;2.00;;;;;;;;119893;1182;25281;-67
2023/02/22 03:12:30;;;;;;;;;1.75;1.00;;;;;;;;119732;1191;25137;-67
2023/02/22 03:15:04;;;;;;;;;2.00;2.00;;;;;;;;119893;1191;25669;-68
2023/02/22 03:17:59;;;;;;;;;2.50;1.00;;;;;;;;119893;1191;25598;-66
2023/02/22 03:20:34;;;;;;;;;1.67;1.67;;;;;;;;119608;1182;25075;-67
2023/02/22 03:23:06;;;;;;;;;4.25;2.00;;;;;;;;119839;1191;25357;-67
2023/02/22 03:25:49;;;;;;;;;2.00;2.00;;;;;;;;119729;1183;25409;-68
2023/02/22 03:28:20;;;;;;;;;1.25;1.25;;;;;;;;119814;1191;25602;-67
2023/02/22 03:31:01;;;;;;;;;2.50;2.50;;;;;;;;119815;1191;24844;-67
2023/02/22 03:33:53;;;;;;;;;3.50;2.00;;;;;;;;119827;1191;25596;-68
2023/02/22 03:36:25;;;;;;;;;0.50;0.50;;;;;;;;119809;1191;25654;-67
2023/02/22 03:38:57;;;;;;;;;0.50;0.50;;;;;;;;119921;1182;25622;-67
2023/02/22 03:41:27;;;;;;;;;1.00;1.00;;;;;;;;119891;1190;25212;-67
2023/02/22 03:44:01;;;;;;;;;1.25;1.25;;;;;;;;119890;1190;25173;-67
2023/02/22 03:46:30;;;;;;;;;2.33;1.33;;;;;;;;119935;1190;25413;-67
2023/02/22 03:48:59;;;;;;;;;1.00;1.00;;;;;;;;119724;1190;24937;-67
2023/02/22 03:51:27;;;;;;;;;1.00;1.00;;;;;;;;119877;1190;25041;-67
2023/02/22 03:53:56;;;;;;;;;1.33;0.33;;;;;;;;119735;1183;24898;-67
2023/02/22 03:56:34;;;;;;;;;3.50;2.75;;;;;;;;119907;1178;26155;-67
2023/02/22 03:59:08;;;;;;;;;4.75;2.00;;;;;;;;119847;1191;25380;-67
2023/02/22 04:01:36;;;;;;;;;1.67;1.67;;;;;;;;119793;1191;24962;-68
2023/02/22 04:04:04;;;;;;;;;3.00;2.67;;;;;;;;119694;1191;25302;-67
2023/02/22 04:06:33;;;;;;;;;1.33;1.33;;;;;;;;119903;1191;24758;-67
2023/02/22 04:09:01;;;;;;;;;2.00;2.00;;;;;;;;119813;1183;24875;-68
2023/02/22 04:11:29;;;;;;;;;2.75;1.25;;;;;;;;119908;1191;25213;-67
2023/02/22 04:13:57;;;;;;;;;2.00;2.00;;;;;;;;119815;1190;24790;-67
2023/02/22 04:16:26;;;;;;;;;4.00;2.75;;;;;;;;119956;1182;25454;-67
2023/02/22 04:18:54;;;;;;;;;3.00;1.67;;;;;;;;119729;1190;25141;-66
2023/02/22 04:21:22;;;;;;;;;2.00;2.00;;;;;;;;119922;1190;24703;-66
2023/02/22 04:23:51;;;;;;;;;4.67;3.67;;;;;;;;119934;1181;25086;-63
2023/02/22 04:26:19;;;;;;;;;2.33;2.33;;;;;;;;119897;1190;25733;-64
2023/02/22 04:28:47;;;;;;;;;3.33;2.00;;;;;;;;119916;1190;24872;-63
2023/02/22 04:31:16;;;;;;;;;2.00;2.00;;;;;;;;119909;1187;24751;-64
2023/02/22 04:33:45;;;;;;;;;2.00;2.00;;;;;;;;119945;1181;25095;-63
2023/02/22 04:36:14;;;;;;;;;2.00;2.00;;;;;;;;119873;1182;24987;-63
2023/02/22 04:38:43;;;;;;;;;2.00;2.00;;;;;;;;119902;1190;25462;-65
2023/02/22 04:41:12;;;;;;;;;2.25;1.25;;;;;;;;119873;1190;24922;-65
2023/02/22 04:43:40;;;;;;;;;1.25;0.50;;;;;;;;119909;1182;24853;-66
2023/02/22 04:46:08;;;;;;;;;2.00;2.00;;;;;;;;119912;1190;25619;-66
2023/02/22 04:48:36;;;;;;;;;2.50;2.50;;;;;;;;119898;1190;25478;-66
2023/02/22 04:51:05;;;;;;;;;2.00;2.00;;;;;;;;119909;1190;26141;-65
2023/02/22 04:53:34;;;;;;;;;1.00;1.00;;;;;;;;119927;1190;25638;-66
2023/02/22 04:56:02;;;;;;;;;0.50;0.50;;;;;;;;119897;1190;24854;-65
2023/02/22 04:58:31;;;;;;;;;0.50;0.50;;;;;;;;119920;1190;25834;-65
2023/02/22 05:00:59;;;;;;;;;1.50;1.50;;;;;;;;119917;1190;25013;-66
2023/02/22 05:03:28;;;;;;;;;3.00;1.50;;;;;;;;119822;1191;25079;-66
2023/02/22 05:05:56;;;;;;;;;1.00;1.00;;;;;;;;119894;1182;25696;-66
2023/02/22 05:08:24;;;;;;;;;2.00;2.00;;;;;;;;119920;1191;25297;-65
2023/02/22 05:10:53;;;;;;;;;1.75;1.75;;;;;;;;119905;1191;25312;-65
2023/02/22 05:13:21;;;;;;;;;1.25;0.75;;;;;;;;119886;1191;25543;-65
2023/02/22 05:15:50;;;;;;;;;1.50;1.50;;;;;;;;119907;1191;24903;-65
2023/02/22 05:18:18;;;;;;;;;2.00;2.00;;;;;;;;119917;1191;25598;-66
2023/02/22 05:20:46;;;;;;;;;3.00;2.00;;;;;;;;119914;1191;24850;-65
2023/02/22 05:23:14;;;;;;;;;1.67;1.67;;;;;;;;119897;1191;25568;-65
2023/02/22 05:25:43;;;;;;;;;2.50;2.00;;;;;;;;119905;1191;25478;-65
2023/02/22 05:28:13;;;;;;;;;2.00;2.00;;;;;;;;119899;1191;25039;-66
2023/02/22 05:30:42;;;;;;;;;2.00;2.00;;;;;;;;119891;1182;25089;-66
2023/02/22 05:33:10;;;;;;;;;2.00;2.00;;;;;;;;119921;1191;24989;-65
2023/02/22 05:35:38;;;;;;;;;2.33;2.33;;;;;;;;119811;1188;24972;-65
2023/02/22 05:38:07;;;;;;;;;2.75;1.75;;;;;;;;119910;1190;24835;-65
2023/02/22 05:40:35;;;;;;;;;3.25;2.00;;;;;;;;120035;1182;24755;-66
2023/02/22 05:43:03;;;;;;;;;2.67;2.00;;;;;;;;119906;1190;25192;-66
2023/02/22 05:45:32;;;;;;;;;3.67;2.00;;;;;;;;119926;1190;25311;-66
2023/02/22 05:48:01;;;;;;;;;0.50;0.50;;;;;;;;119928;1190;25383;-65
2023/02/22 05:50:31;;;;;;;;;1.67;1.67;;;;;;;;119730;1190;25002;-65
2023/02/22 05:53:00;;;;;;;;;3.33;2.00;;;;;;;;119903;1190;25571;-65
2023/02/22 05:55:28;;;;;;;;;2.25;2.00;;;;;;;;119894;1190;24762;-66
2023/02/22 05:57:56;;;;;;;;;5.00;3.00;;;;;;;;119908;1186;24715;-65
2023/02/22 06:00:28;;;;;;;;;2.00;2.00;;;;;;;;119917;1186;24707;-66
2023/02/22 06:02:59;;;;;;;;;0.25;0.25;;;;;;;;119948;1181;25105;-66
2023/02/22 06:05:28;;;;;;;;;3.00;3.00;;;;;;;;119913;1181;24975;-65
2023/02/22 06:07:57;;;;;;;;;3.75;2.25;;;;;;;;119785;1191;25426;-65
2023/02/22 06:10:26;;;;;;;;;3.00;3.00;;;;;;;;119858;1190;25042;-66
2023/02/22 06:12:55;;;;;;;;;1.50;1.50;;;;;;;;119841;1187;25100;-66
2023/02/22 06:15:25;;;;;;;;;4.67;2.67;;;;;;;;119789;1190;26944;-66
2023/02/22 06:17:54;;;;;;;;;3.00;3.00;;;;;;;;119915;1186;24758;-65
2023/02/22 06:20:24;;;;;;;;;3.67;3.67;;;;;;;;119945;1186;26330;-65
2023/02/22 06:22:54;;;;;;;;;3.00;3.00;;;;;;;;119819;1187;24933;-65
2023/02/22 06:25:26;;;;;;;;;3.00;1.00;;;;;;;;119696;1190;24975;-64
2023/02/22 06:27:54;;;;;;;;;3.00;3.00;;;;;;;;119884;1190;25445;-66
2023/02/22 06:30:24;;;;;;;;;1.00;1.00;;;;;;;;119911;1181;25642;-65
2023/02/22 06:32:52;;;;;;;;;3.00;2.00;;;;;;;;119946;1177;25701;-65
2023/02/22 06:35:21;;;;;;;;;2.50;2.00;;;;;;;;119839;1191;25159;-65
2023/02/22 06:37:49;;;;;;;;;2.75;2.75;;;;;;;;119879;1183;24943;-64
2023/02/22 06:40:17;;;;;;;;;1.67;1.67;;;;;;;;119920;1182;25438;-65
2023/02/22 06:42:47;;;;;;;;;4.50;3.25;;;;;;;;119871;1177;25661;-66
2023/02/22 06:45:16;;;;;;;;;3.33;2.67;;;;;;;;119894;1177;25132;-65
2023/02/22 06:47:45;;;;;;;;;4.00;4.00;;;;;;;;119821;1191;25212;-66
2023/02/22 06:50:28;;;;;;;;;2.00;2.00;;;;;;;;119908;1190;24689;-66
2023/02/22 06:52:57;;;;;;;;;2.75;2.75;;;;;;;;119919;1182;25213;-65
2023/02/22 06:55:32;;;;;;;;;3.00;2.00;;;;;;;;119753;1184;25650;-65
2023/02/22 06:58:02;;;;;;;;;2.33;2.33;;;;;;;;119902;1190;24688;-65
2023/02/22 07:00:31;;;;;;;;;2.50;1.75;;;;;;;;119833;1183;25054;-65
2023/02/22 07:03:00;;;;;;;;;3.00;3.00;;;;;;;;119926;1187;24777;-63
2023/02/22 07:05:28;;;;;;;;;4.00;3.00;;;;;;;;119909;1182;25268;-65
2023/02/22 07:08:03;;;;;;;;;3.00;2.00;;;;;;;;119890;1190;24740;-67
2023/02/22 07:10:33;;;;;;;;;3.00;3.00;;;;;;;;119850;1182;24943;-65
2023/02/22 07:13:02;;;;;;;;;3.67;3.00;;;;;;;;119847;1182;25287;-65
2023/02/22 07:15:32;;;;;;;;;3.00;3.00;;;;;;;;119745;1188;24803;-65
2023/02/22 07:18:01;;;;;;;;;6.25;3.75;;;;;;;;119708;1189;25200;-66
2023/02/22 07:20:30;;;;;;;;;3.33;3.33;;;;;;;;119840;1187;25608;-65
2023/02/22 07:22:59;;;;;;;;;3.75;3.75;;;;;;;;119712;1190;25047;-66
2023/02/22 07:25:27;;;;;;;;;5.00;5.00;;;;;;;;119786;1188;24931;-66
2023/02/22 07:27:55;;;;;;;;;5.25;3.25;;;;;;;;119932;1190;25143;-66
2023/02/22 07:30:29;;;;;;;;;4.50;3.50;;;;;;;;119740;1190;25238;-66
2023/02/22 07:33:04;;;;;;;;;3.00;3.00;;;;;;;;119918;1190;26072;-65
2023/02/22 07:35:36;;;;;;;;;5.50;2.50;;;;;;;;119861;1187;24797;-64
2023/02/22 07:38:06;;;;;;;;;3.25;3.25;;;;;;;;119892;1190;25436;-66
2023/02/22 07:40:36;;;;;;;;;6.00;5.00;;;;;;;;119912;1187;25256;-65
2023/02/22 07:43:12;;;;;;;;;4.00;3.00;;;;;;;;119709;1189;25097;-65
2023/02/22 07:45:41;;;;;;;;;3.00;2.00;;;;;;;;119900;1190;24748;-68
2023/02/22 07:48:11;;;;;;;;;4.67;3.67;;;;;;;;119917;1187;24667;-69
2023/02/22 07:50:40;;;;;;;;;4.00;3.00;;;;;;;;119887;1181;25392;-68
2023/02/22 07:53:15;;;;;;;;;2.00;2.00;;;;;;;;119955;1182;25076;-69
2023/02/22 07:55:43;;;;;;;;;3.50;3.00;;;;;;;;119944;1182;24974;-69
2023/02/22 07:58:14;;;;;;;;;4.50;4.00;;;;;;;;119754;1191;25229;-69
2023/02/22 08:00:47;;;;;;;;;3.50;2.50;;;;;;;;119826;1191;25271;-67
2023/02/22 08:03:17;;;;;;;;;2.50;2.50;;;;;;;;119926;1191;25932;-70
2023/02/22 08:05:48;;;;;;;;;5.75;4.50;;;;;;;;119850;1187;25478;-65
2023/02/22 08:08:17;;;;;;;;;4.67;4.67;;;;;;;;119946;1190;25363;-68
2023/02/22 08:10:48;;;;;;;;;3.00;3.00;;;;;;;;119918;1190;24748;-71
2023/02/22 08:13:17;;;;;;;;;3.75;2.75;;;;;;;;119731;1190;25087;-73
2023/02/22 08:15:48;;;;;;;;;6.00;4.25;;;;;;;;119905;1187;25653;-72
2023/02/22 08:18:17;;;;;;;;;3.67;3.00;;;;;;;;119916;1182;25486;-74
2023/02/22 08:20:47;;;;;;;;;3.50;3.50;;;;;;;;119964;1179;25185;-72
2023/02/22 08:23:17;;;;;;;;;3.33;3.00;;;;;;;;119817;1186;26062;-75
2023/02/22 08:25:45;;;;;;;;;3.00;3.00;;;;;;;;119795;1188;24807;-75
2023/02/22 08:28:16;;;;;;;;;4.50;2.00;;;;;;;;119877;1183;25569;-75
2023/02/22 08:30:45;;;;;;;;;5.00;4.25;;;;;;;;119976;1186;25226;-74
2023/02/22 08:33:15;;;;;;;;;3.75;3.75;;;;;;;;119852;1187;25242;-70
2023/02/22 08:35:48;;;;;;;;;4.50;4.00;;;;;;;;119724;1190;25551;-67
2023/02/22 08:38:24;;;;;;;;;6.75;5.25;;;;;;;;119785;1190;24725;-68
2023/02/22 08:40:53;;;;;;;;;4.00;4.00;;;;;;;;119893;1186;25009;-66
2023/02/22 08:43:22;;;;;;;;;1.25;1.00;;;;;;;;120061;1177;24677;-69
2023/02/22 08:45:51;;;;;;;;;9.00;4.50;;;;;;;;119869;1191;25124;-73
2023/02/22 08:48:20;;;;;;;;;6.00;4.00;;;;;;;;119962;1186;24692;-73
2023/02/22 08:50:48;;;;;;;;;6.00;5.00;;;;;;;;119791;1183;25491;-65
2023/02/22 08:53:17;;;;;;;;;5.33;4.67;;;;;;;;119900;1186;26150;-69
2023/02/22 08:55:45;;;;;;;;;4.50;3.75;;;;;;;;119907;1191;25276;-65
2023/02/22 08:58:14;;;;;;;;;8.00;7.00;;;;;;;;119796;1184;24725;-67
2023/02/22 09:00:43;;;;;;;;;6.00;4.00;;;;;;;;119901;1191;24830;-64
2023/02/22 09:03:13;;;;;;;;;3.50;3.50;;;;;;;;119934;1180;24796;-66
2023/02/22 09:05:43;;;;;;;;;4.00;4.00;;;;;;;;119910;1187;25256;-65
2023/02/22 09:08:11;;;;;;;;;2.50;2.50;;;;;;;;119915;1190;24965;-67
2023/02/22 09:10:40;;;;;;;;;6.00;6.00;;;;;;;;119823;1187;25399;-67
2023/02/22 09:13:08;;;;;;;;;5.25;4.25;;;;;;;;119742;1189;25213;-67
2023/02/22 09:15:37;;;;;;;;;7.00;5.50;;;;;;;;119937;1182;25461;-64
2023/02/22 09:18:10;;;;;;;;;6.25;5.25;;;;;;;;119895;1190;25262;-66
2023/02/22 09:20:38;;;;;;;;;5.00;4.25;;;;;;;;119833;1190;27047;-66
2023/02/22 09:23:08;;;;;;;;;5.25;5.25;;;;;;;;119914;1190;25490;-67
2023/02/22 09:25:39;;;;;;;;;9.75;5.50;;;;;;;;119931;1183;25425;-67
2023/02/22 09:28:08;;;;;;;;;5.00;5.00;;;;;;;;119917;1190;25298;-66
2023/02/22 09:30:36;;;;;;;;;5.33;4.00;;;;;;;;119937;1191;25175;-65
2023/02/22 09:33:11;;;;;;;;;8.33;5.33;;;;;;;;119857;1189;24884;-66
2023/02/22 09:35:45;;;;;;;;;4.50;4.50;;;;;;;;119997;1181;24774;-67
2023/02/22 09:38:18;;;;;;;;;5.25;5.25;;;;;;;;119845;1191;25800;-66
2023/02/22 09:40:49;;;;;;;;;4.00;4.00;;;;;;;;119840;1183;25065;-66
2023/02/22 09:43:30;;;;;;;;;7.00;3.00;;;;;;;;119906;1190;25374;-66
2023/02/22 09:46:17;;;;;;;;;6.00;4.67;;;;;;;;119870;1190;25358;-66
2023/02/22 09:49:14;;;;;;;;;5.75;3.50;;;;;;;;119838;1182;24818;-66
2023/02/22 09:51:58;;;;;;;;;4.75;4.00;;;;;;;;120012;1182;25515;-65
2023/02/22 09:54:42;;;;;;;;;3.75;3.75;;;;;;;;120115;1190;24910;-68
2023/02/22 09:57:34;;;;;;;;;4.25;4.25;;;;;;;;119927;1190;26271;-66
2023/02/22 10:00:13;;;;;;;;;4.67;4.00;;;;;;;;119929;1190;25603;-64
2023/02/22 10:02:48;;;;;;;;;6.00;4.00;;;;;;;;119881;1190;24842;-65
2023/02/22 10:05:40;;;;;;;;;4.50;3.50;;;;;;;;119924;1191;25526;-66
2023/02/22 10:08:14;;;;;;;;;5.00;3.75;;;;;;;;119850;1183;25530;-66
2023/02/22 10:10:44;;;;;;;;;6.50;4.00;;;;;;;;119826;1191;24801;-65
2023/02/22 10:13:28;;;;;;;;;8.50;4.75;;;;;;;;119712;1191;24768;-65
2023/02/22 10:16:23;;;;;;;;;5.00;5.00;;;;;;;;119890;1191;25241;-65
2023/02/22 10:19:10;;;;;;;;;5.67;3.33;;;;;;;;119867;1189;24989;-65
2023/02/22 10:22:20;;;;;;;;;6.00;4.25;;;;;;;;119868;1189;25554;-66
2023/02/22 10:24:57;;;;;;;;;6.50;4.50;;;;;;;;119382;1183;24896;-66
2023/02/22 10:27:35;;;;;;;;;3.00;3.00;;;;;;;;119861;1191;24806;-67
2023/02/22 10:30:18;;;;;;;;;7.00;7.00;;;;;;;;119815;1190;25293;-66
2023/02/22 10:33:11;;;;;;;;;16.67;13.67;;;;;;;;119716;1190;25742;-65
2023/02/22 10:35:40;;;;;;;;;62.00;35.00;;;;;;;;119815;1183;24932;-66
2023/02/22 10:38:22;;;;;;;;;46.25;29.50;;;;;;;;119879;1182;25739;-65
2023/02/22 10:41:24;;;;;;;;;38.33;21.67;;;;;;;;119916;1191;25633;-68
2023/02/22 10:43:52;;;;;;;;;40.33;25.67;;;;;;;;119863;1190;25503;-67
2023/02/22 10:46:21;;;;;;;;;30.33;21.33;;;;;;;;119900;1190;25083;-65
2023/02/22 10:48:55;;;;;;;;;26.50;17.75;;;;;;;;119810;1191;25292;-66
2023/02/22 10:51:24;;;;;;;;;36.50;25.00;;;;;;;;119845;1184;25665;-66
2023/02/22 10:54:16;;;;;;;;;47.25;31.25;;;;;;;;119895;1190;25620;-66
2023/02/22 10:56:51;;;;;;;;;48.00;32.50;;;;;;;;119890;1182;25085;-64
2023/02/22 10:59:34;;;;;;;;;42.75;24.50;;;;;;;;119700;1183;25939;-62
2023/02/22 11:02:20;;;;;;;;;44.33;31.67;;;;;;;;119720;1188;25113;-62
2023/02/22 11:04:54;;;;;;;;;38.67;28.33;;;;;;;;119938;1187;25206;-62
2023/02/22 11:07:28;;;;;;;;;28.25;21.50;;;;;;;;119743;1189;24881;-60
2023/02/22 11:10:08;;;;;;;;;36.00;22.67;;;;;;;;119921;1190;25054;-63
2023/02/22 11:12:42;;;;;;;;;34.50;25.75;;;;;;;;119726;1191;25368;-62
2023/02/22 11:15:17;;;;;;;;;34.00;25.75;;;;;;;;119836;1190;25232;-60
2023/02/22 11:17:50;;;;;;;;;27.67;19.33;;;;;;;;119915;1182;25066;-62
2023/02/22 11:20:25;;;;;;;;;33.25;23.75;;;;;;;;119769;1179;24872;-61
2023/02/22 11:22:56;;;;;;;;;31.00;23.75;;;;;;;;119898;1191;25571;-61
2023/02/22 11:25:36;;;;;;;;;26.00;17.50;;;;;;;;119807;1191;25610;-62
2023/02/22 11:28:13;;;;;;;;;26.75;20.50;;;;;;;;119816;1183;25546;-63
2023/02/22 11:30:50;;;;;;;;;37.00;21.00;;;;;;;;119778;1183;25451;-62
2023/02/22 11:33:22;;;;;;;;;24.75;20.75;;;;;;;;119944;1187;24985;-60
2023/02/22 11:35:51;;;;;;;;;33.75;19.50;;;;;;;;119883;1187;26579;-60
2023/02/22 11:38:27;;;;;;;;;32.00;24.50;;;;;;;;119905;1182;25576;-61
2023/02/22 11:41:10;;;;;;;;;24.67;18.00;;;;;;;;119899;1189;25250;-62
2023/02/22 11:43:39;;;;;;;;;22.50;19.00;;;;;;;;119887;1191;24776;-65
2023/02/22 11:46:12;;;;;;;;;23.67;19.33;;;;;;;;119723;1183;25176;-60
2023/02/22 11:48:54;;;;;;;;;27.33;18.33;;;;;;;;119809;1192;25047;-61
2023/02/22 11:51:45;;;;;;;;;27.00;19.00;;;;;;;;119843;1183;25083;-61
2023/02/22 11:54:40;;;;;;;;;30.67;18.67;;;;;;;;119808;1192;25574;-62
2023/02/22 11:57:26;;;;;;;;;29.33;20.67;;;;;;;;119833;1188;25200;-61
2023/02/22 12:00:08;;;;;;;;;29.00;20.00;;;;;;;;119799;1182;25700;-61
2023/02/22 12:03:00;;;;;;;;;23.33;21.00;;;;;;;;119786;1188;24985;-62
2023/02/22 12:06:00;;;;;;;;;22.00;14.00;;;;;;;;119683;1192;25406;-62
2023/02/22 12:08:36;;;;;;;;;25.25;18.00;;;;;;;;119780;1187;25564;-62
2023/02/22 12:11:27;;;;;;;;;25.75;20.50;;;;;;;;119821;1183;25504;-62
2023/02/22 12:14:04;;;;;;;;;24.75;18.50;;;;;;;;119697;1188;25393;-61
2023/02/22 12:16:37;;;;;;;;;21.33;15.67;;;;;;;;119787;1187;24851;-61
2023/02/22 12:19:37;;;;;;;;;25.67;17.67;;;;;;;;119782;1192;25525;-61
2023/02/22 12:22:11;;;;;;;;;21.00;14.50;;;;;;;;119719;1192;25682;-61
2023/02/22 12:24:50;;;;;;;;;28.25;19.00;;;;;;;;119792;1191;25180;-60
2023/02/22 12:27:37;;;;;;;;;22.67;16.33;;;;;;;;119870;1179;24683;-60
2023/02/22 12:30:22;;;;;;;;;24.25;19.00;;;;;;;;119733;1192;25576;-61
2023/02/22 12:33:26;;;;;;;;;19.67;13.67;;;;;;;;119732;1192;25016;-60
2023/02/22 12:35:57;;;;;;;;;21.00;17.33;;;;;;;;119670;1191;24899;-61
2023/02/22 12:38:43;;;;;;;;;17.33;12.00;;;;;;;;119728;1192;25294;-61
2023/02/22 12:41:25;;;;;;;;;25.50;16.00;;;;;;;;119738;1192;25065;-61
2023/02/22 12:44:05;;;;;;;;;22.00;16.00;;;;;;;;119747;1183;24948;-61
2023/02/22 12:46:43;;;;;;;;;20.50;16.75;;;;;;;;119774;1189;24935;-61
2023/02/22 12:49:32;;;;;;;;;23.00;16.67;;;;;;;;119707;1190;25607;-59
2023/02/22 12:52:15;;;;;;;;;25.50;19.75;;;;;;;;119760;1192;25377;-60
2023/02/22 12:55:10;;;;;;;;;17.25;14.50;;;;;;;;119679;1185;25273;-60
2023/02/22 12:58:05;;;;;;;;;20.00;14.50;;;;;;;;119783;1183;25048;-61
2023/02/22 13:00:57;;;;;;;;;15.00;12.67;;;;;;;;119855;1192;25274;-63
2023/02/22 13:03:35;;;;;;;;;20.25;16.00;;;;;;;;119869;1183;24843;-60
2023/02/22 13:06:41;;;;;;;;;16.67;14.00;;;;;;;;119746;1182;25305;-60
2023/02/22 13:09:31;;;;;;;;;22.67;15.67;;;;;;;;119770;1187;24659;-60
2023/02/22 13:12:14;;;;;;;;;26.00;17.33;;;;;;;;119788;1183;25354;-60
2023/02/22 13:14:45;;;;;;;;;24.00;15.00;;;;;;;;119768;1190;24913;-60
2023/02/22 13:17:31;;;;;;;;;21.50;18.25;;;;;;;;119840;1191;26042;-62
2023/02/22 13:20:05;;;;;;;;;23.67;15.00;;;;;;;;119798;1182;25642;-61
2023/02/22 13:22:54;;;;;;;;;17.00;12.67;;;;;;;;119804;1183;25319;-60
2023/02/22 13:25:32;;;;;;;;;23.00;15.33;;;;;;;;119787;1190;25029;-60
2023/02/22 13:28:19;;;;;;;;;16.67;12.67;;;;;;;;119905;1190;25542;-60
2023/02/22 13:31:11;;;;;;;;;16.50;16.00;;;;;;;;119933;1190;25574;-60
2023/02/22 13:33:59;;;;;;;;;24.75;18.25;;;;;;;;119919;1190;25124;-60
2023/02/22 13:37:05;;;;;;;;;15.67;10.67;;;;;;;;119801;1183;25034;-63
2023/02/22 13:39:55;;;;;;;;;17.50;12.00;;;;;;;;119705;1183;25537;-61
2023/02/22 13:42:43;;;;;;;;;15.25;7.00;;;;;;;;119779;1189;25431;-59
2023/02/22 13:45:29;;;;;;;;;15.25;12.75;;;;;;;;119805;1180;24905;-61
2023/02/22 13:48:06;;;;;;;;;16.00;12.33;;;;;;;;119878;1191;25167;-61
2023/02/22 13:50:47;;;;;;;;;18.50;11.25;;;;;;;;119893;1179;25564;-61
2023/02/22 13:53:22;;;;;;;;;20.00;11.00;;;;;;;;119728;1183;24903;-61
2023/02/22 13:55:55;;;;;;;;;18.75;12.25;;;;;;;;119879;1191;25411;-61
2023/02/22 13:58:24;;;;;;;;;13.33;11.00;;;;;;;;119834;1191;25432;-61
2023/02/22 14:00:58;;;;;;;;;18.50;14.00;;;;;;;;119791;1191;25062;-61
2023/02/22 14:03:39;;;;;;;;;16.50;12.50;;;;;;;;119890;1182;26061;-61
2023/02/22 14:06:30;;;;;;;;;14.00;9.50;;;;;;;;119910;1182;25217;-61
2023/02/22 14:08:58;;;;;;;;;16.75;13.25;;;;;;;;119719;1183;25515;-60
2023/02/22 14:11:46;;;;;;;;;15.25;12.00;;;;;;;;119834;1192;25690;-60
2023/02/22 14:14:16;;;;;;;;;17.00;13.00;;;;;;;;119745;1192;24945;-61
2023/02/22 14:17:21;;;;;;;;;15.50;11.75;;;;;;;;119715;1192;25153;-61
2023/02/22 14:20:29;;;;;;;;;15.33;11.67;;;;;;;;119843;1192;25190;-60
2023/02/22 14:23:31;;;;;;;;;11.33;10.33;;;;;;;;119845;1189;25264;-60
2023/02/22 14:26:29;;;;;;;;;16.50;13.00;;;;;;;;119896;1182;25520;-61
2023/02/22 14:28:59;;;;;;;;;13.00;10.33;;;;;;;;119790;1192;25680;-59
2023/02/22 14:31:28;;;;;;;;;16.33;13.33;;;;;;;;119881;1187;24788;-69
2023/02/22 14:34:10;;;;;;;;;10.00;10.00;;;;;;;;119909;1187;25383;-60
2023/02/22 14:36:44;;;;;;;;;11.25;10.25;;;;;;;;119869;1191;25133;-60
2023/02/22 14:39:20;;;;;;;;;13.00;9.00;;;;;;;;119880;1187;25429;-65
2023/02/22 14:42:26;;;;;;;;;12.67;11.00;;;;;;;;119793;1191;25164;-59
2023/02/22 14:45:10;;;;;;;;;17.00;12.50;;;;;;;;119654;1188;25293;-61
2023/02/22 14:48:03;;;;;;;;;14.25;11.25;;;;;;;;119924;1183;24748;-62
2023/02/22 14:50:40;;;;;;;;;16.00;10.00;;;;;;;;119858;1192;25348;-62
2023/02/22 14:53:11;;;;;;;;;14.00;12.25;;;;;;;;119877;1191;25341;-61
2023/02/22 14:55:49;;;;;;;;;13.25;10.50;;;;;;;;119766;1191;24790;-60
2023/02/22 14:58:39;;;;;;;;;17.67;10.00;;;;;;;;119780;1192;24759;-60
2023/02/22 15:01:32;;;;;;;;;16.25;12.00;;;;;;;;119802;1192;25185;-61
2023/02/22 15:04:29;;;;;;;;;11.50;10.75;;;;;;;;119749;1192;25233;-63
2023/02/22 15:07:00;;;;;;;;;12.75;10.50;;;;;;;;119853;1187;25411;-62
2023/02/22 15:09:35;;;;;;;;;18.33;8.67;;;;;;;;119693;1184;24858;-58
2023/02/22 15:12:03;;;;;;;;;13.00;10.00;;;;;;;;119839;1191;25545;-61